Surface Data

84.7 °F / 29.3 °C
SSE at 16 MPH
79%
77.5°F / 25.3 °C
29.76" (1007 mb)
10 mile(s)
partly cloudy
2020.10.27 0620 UTC

Surface Data

Raw METARs

2020/10/27 06:20
PKWA 270620Z AUTO 16014KT 10SM SCT021 SCT029 SCT120 29/25 A2976 RMK AO2 T02930253

Translated METAR

Kwajalein, Bucholz AAF, Kwajalein KMR ATOL Airport, Marshall Islands (PKWA) 08-43N 167-44E 2M
Oct 27, 2020 - 02:20 AM EDT / 2020.10.27 0620 UTC
Wind: from the SSE (160 degrees) at 16 MPH (14 KT):0
Visibility: 10 mile(s):0
Sky conditions: partly cloudy
Temperature: 84.7 F (29.3 C)
Dew Point: 77.5 F (25.3 C)
Relative Humidity: 79%
Pressure (altimeter): 29.76 in. Hg (1007 hPa)
ob: PKWA 270620Z AUTO 16014KT 10SM SCT021 SCT029 SCT120 29/25 A2976 RMK AO2 T02930253
cycle: 6